Latest Weather Observations for Little Bay

IDN60801

Issued at 7:03 am EST Saturday 1 August 2015 (issued every 30 minutes, with the page automatically refreshed every 10 minutes)

About weather observations | Map of weather stations | Latest weather observations for NSW | Other Formats
Station Details ID: 066051 Name: LITTLE BAY (THE COAST GOLF CLUB) Lat: -33.98 Lon: 151.25 Height: 22.0 m
Data from the previous 72 hours. | See also: Recent months for locations in New South Wales
Date/Time
EST
Temp
°C
App
Temp
°C
Dew
Point
Rel
Hum
%
Delta-T
°C
Wind Press
QNH
hPa
Press
MSL
hPa
Rain
since 9 am
mm
Dir
 
Spd
km/h
Gust
km/h
Spd
kts
Gust
kts
01/07:00am - - - - - NW 7 11 4 6 - - -
01/06:30am - - - - - WNW 9 13 5 7 - - -
01/06:00am - - - - - WNW 13 19 7 10 - - -
01/05:30am - - - - - W 13 17 7 9 - - -
01/05:00am - - - - - W 13 17 7 9 - - -
01/04:30am - - - - - WNW 11 15 6 8 - - -
01/04:00am - - - - - W 9 15 5 8 - - -
01/03:30am - - - - - WNW 9 11 5 6 - - -
01/03:00am - - - - - WNW 7 11 4 6 - - -
01/02:30am - - - - - WNW 9 13 5 7 - - -
01/02:00am - - - - - WNW 9 13 5 7 - - -
01/01:30am - - - - - WNW 13 17 7 9 - - -
01/01:00am - - - - - WNW 11 15 6 8 - - -
01/12:30am - - - - - WNW 11 17 6 9 - - -
01/12:00am - - - - - WNW 11 15 6 8 - - -
 
Date/Time
EST
Temp
°C
App
Temp
°C
Dew
Point
Rel
Hum
%
Delta-T
°C
Wind Press
QNH
hPa
Press
MSL
hPa
Rain
since 9 am
mm
Dir
 
Spd
km/h
Gust
km/h
Spd
kts
Gust
kts
31/11:30pm - - - - - WNW 9 13 5 7 - - -
31/11:00pm - - - - - WNW 9 13 5 7 - - -
31/10:30pm - - - - - NW 7 13 4 7 - - -
31/10:00pm - - - - - N 13 17 7 9 - - -
31/09:30pm - - - - - N 13 20 7 11 - - -
31/09:00pm - - - - - NNE 22 32 12 17 - - -
31/08:30pm - - - - - NNE 22 30 12 16 - - -
31/08:00pm - - - - - NE 19 24 10 13 - - -
31/07:30pm - - - - - NE 19 24 10 13 - - -
31/07:00pm - - - - - ENE 15 20 8 11 - - -
31/06:30pm - - - - - ENE 17 20 9 11 - - -
31/06:00pm - - - - - ENE 17 20 9 11 - - -
31/05:30pm - - - - - ENE 17 20 9 11 - - -
31/05:00pm - - - - - E 13 19 7 10 - - -
31/04:30pm - - - - - ESE 19 24 10 13 - - -
31/04:00pm - - - - - WNW 4 7 2 4 - - -
31/03:30pm - - - - - WNW 7 11 4 6 - - -
31/03:00pm - - - - - W 6 13 3 7 - - -
31/02:30pm - - - - - WNW 7 13 4 7 - - -
31/02:00pm - - - - - W 11 19 6 10 - - -
31/01:30pm - - - - - WSW 13 19 7 10 - - -
31/01:00pm - - - - - WSW 11 17 6 9 - - -
31/12:30pm - - - - - W 15 20 8 11 - - -
31/12:00pm - - - - - WSW 15 22 8 12 - - -
31/11:30am - - - - - WSW 11 17 6 9 - - -
31/11:00am - - - - - SSW 11 17 6 9 - - -
31/10:30am - - - - - WSW 9 15 5 8 - - -
31/10:00am - - - - - W 13 19 7 10 - - -
31/09:30am - - - - - WNW 15 28 8 15 - - -
31/09:00am - - - - - WNW 11 20 6 11 - - -
31/08:30am - - - - - NW 7 15 4 8 - - -
31/08:00am - - - - - WNW 6 9 3 5 - - -
31/07:30am - - - - - NNW 2 4 1 2 - - -
31/07:00am - - - - - NW 11 13 6 7 - - -
31/06:30am - - - - - NW 4 6 2 3 - - -
31/06:00am - - - - - CALM 0 4 0 2 - - -
31/05:30am - - - - - CALM 0 0 0 0 - - -
31/05:00am - - - - - CALM 0 0 0 0 - - -
31/04:30am - - - - - SE 2 4 1 2 - - -
31/04:00am - - - - - NW 2 6 1 3 - - -
31/03:30am - - - - - W 4 6 2 3 - - -
31/03:00am - - - - - NNW 2 6 1 3 - - -
31/02:30am - - - - - NNW 6 9 3 5 - - -
31/02:00am - - - - - NNW 4 6 2 3 - - -
31/01:30am - - - - - NNW 2 6 1 3 - - -
31/01:00am - - - - - NW 2 6 1 3 - - -
31/12:30am - - - - - NNW 2 6 1 3 - - -
31/12:00am - - - - - NNW 7 11 4 6 - - -
 
Date/Time
EST
Temp
°C
App
Temp
°C
Dew
Point
Rel
Hum
%
Delta-T
°C
Wind Press
QNH
hPa
Press
MSL
hPa
Rain
since 9 am
mm
Dir
 
Spd
km/h
Gust
km/h
Spd
kts
Gust
kts
30/11:30pm - - - - - N 9 13 5 7 - - -
30/11:00pm - - - - - NNW 9 15 5 8 - - -
30/10:30pm - - - - - NNW 15 20 8 11 - - -
30/10:00pm - - - - - NNW 13 20 7 11 - - -
30/09:30pm - - - - - NW 13 20 7 11 - - -
30/09:00pm - - - - - NNW 13 20 7 11 - - -
30/08:30pm - - - - - NNW 13 19 7 10 - - -
30/08:00pm - - - - - NNW 17 26 9 14 - - -
30/07:30pm - - - - - NNW 13 22 7 12 - - -
30/07:00pm - - - - - NNW 13 22 7 12 - - -
30/06:30pm - - - - - NNW 11 17 6 9 - - -
30/06:00pm - - - - - NNW 13 24 7 13 - - -
30/05:30pm - - - - - N 13 24 7 13 - - -
30/05:00pm - - - - - N 9 17 5 9 - - -
30/04:30pm - - - - - NNW 13 19 7 10 - - -
30/04:00pm - - - - - NNW 11 20 6 11 - - -
30/03:30pm - - - - - NNW 13 22 7 12 - - -
30/03:00pm - - - - - NNW 9 19 5 10 - - -
30/02:30pm - - - - - NNW 11 19 6 10 - - -
30/02:00pm - - - - - NNW 15 26 8 14 - - -
30/01:30pm - - - - - NW 13 24 7 13 - - -
30/01:00pm - - - - - NNW 13 24 7 13 - - -
30/12:30pm - - - - - NNW 15 22 8 12 - - -
30/12:00pm - - - - - NW 11 19 6 10 - - -
30/11:30am - - - - - NW 11 19 6 10 - - -
30/11:00am - - - - - NNW 13 20 7 11 - - -
30/10:30am - - - - - NW 9 15 5 8 - - -
30/10:00am - - - - - WNW 11 17 6 9 - - -
30/09:30am - - - - - WNW 9 15 5 8 - - -
30/09:00am - - - - - WNW 9 15 5 8 - - -
30/08:30am - - - - - W 17 22 9 12 - - -
30/08:00am - - - - - W 15 19 8 10 - - -
30/07:30am - - - - - WNW 13 17 7 9 - - -
30/07:00am - - - - - WNW 11 15 6 8 - - -
30/06:30am - - - - - WNW 13 19 7 10 - - -
30/06:00am - - - - - WNW 13 17 7 9 - - -
30/05:30am - - - - - WNW 15 19 8 10 - - -
30/05:00am - - - - - WNW 15 19 8 10 - - -
30/04:30am - - - - - WNW 15 20 8 11 - - -
30/04:00am - - - - - WNW 9 11 5 6 - - -
30/03:30am - - - - - W 7 11 4 6 - - -
30/03:00am - - - - - NW 9 13 5 7 - - -
30/02:30am - - - - - NW 9 15 5 8 - - -
30/02:00am - - - - - WNW 11 13 6 7 - - -
30/01:30am - - - - - WNW 13 15 7 8 - - -
30/01:00am - - - - - WNW 13 15 7 8 - - -
30/12:30am - - - - - WNW 13 17 7 9 - - -
30/12:00am - - - - - WNW 11 15 6 8 - - -
 
Date/Time
EST
Temp
°C
App
Temp
°C
Dew
Point
Rel
Hum
%
Delta-T
°C
Wind Press
QNH
hPa
Press
MSL
hPa
Rain
since 9 am
mm
Dir
 
Spd
km/h
Gust
km/h
Spd
kts
Gust
kts
29/11:30pm - - - - - WNW 11 15 6 8 - - -
29/11:00pm - - - - - WNW 9 13 5 7 - - -
29/10:30pm - - - - - W 9 11 5 6 - - -
29/10:00pm - - - - - NW 6 9 3 5 - - -
29/09:30pm - - - - - N 7 11 4 6 - - -
29/09:00pm - - - - - N 6 9 3 5 - - -
29/08:30pm - - - - - NNE 9 15 5 8 - - -
29/08:00pm - - - - - NNE 7 11 4 6 - - -
29/07:30pm - - - - - N 4 6 2 3 - - -
29/07:00pm - - - - - N 4 6 2 3 - - -
29/06:30pm - - - - - NE 6 9 3 5 - - -
29/06:00pm - - - - - NE 9 11 5 6 - - -
29/05:30pm - - - - - NE 7 11 4 6 - - -
29/05:00pm - - - - - ENE 7 9 4 5 - - -
29/04:30pm - - - - - E 7 11 4 6 - - -
29/04:00pm - - - - - ESE 7 9 4 5 - - -
29/03:30pm - - - - - SE 7 11 4 6 - - -
29/03:00pm - - - - - SE 11 15 6 8 - - -
29/02:30pm - - - - - SE 11 15 6 8 - - -
29/02:00pm - - - - - SSE 11 17 6 9 - - -
29/01:30pm - - - - - SSE 11 15 6 8 - - -
29/01:00pm - - - - - SSE 13 17 7 9 - - -
29/12:30pm - - - - - SSE 11 17 6 9 - - -
29/12:00pm - - - - - S 11 17 6 9 - - -
29/11:30am - - - - - SW 6 11 3 6 - - -
29/11:00am - - - - - W 11 15 6 8 - - -
29/10:30am - - - - - W 13 17 7 9 - - -
29/10:00am - - - - - WNW 13 19 7 10 - - -
29/09:30am - - - - - WNW 15 22 8 12 - - -
29/09:00am - - - - - WNW 13 19 7 10 - - -
29/08:30am - - - - - WNW 13 20 7 11 - - -
29/08:00am - - - - - WNW 13 19 7 10 - - -
29/07:30am - - - - - WNW 15 22 8 12 - - -

Other Formats:

Comma delimited format used in spreadsheet applications
http://www.bom.gov.au/fwo/IDN60801/IDN60801.94780.axf

JavaScript Object Notation format (JSON) in row-major order
http://www.bom.gov.au/fwo/IDN60801/IDN60801.94780.json